Avoca, New York
Current Conditions -  °F | °C
As of 4:02 PM on Wednesday 26 Nov 2014 (Local Time) from KDSV Reporting Station
Light Snow Light Snow  
Wind Chill: 24°   Ceiling: 1200
Heat Index: 32°   Visibility: 9mi
Dew Point: 30°   Wind: 9mph
Humidity: 92%   Direction: 320°NW
Pressure: 30.07"   Gusts: NA
Location:  42.41°N, 77.42°W
Report Text: KDSV 262102Z AUTO 32008KT 9SM -SN FEW004 BKN012 OVC018 00/M01 A3007 RMK AO2 P0000 T00001011
Loading
Personal Weather Stations






























Interactive Weather Map New forecast layout! Learn more

10-Day Weather Forecast

Advertisements
Track Severe Weather on mobile